Time;durP1;ratioP1;P1;durP2;ratioP2;P2;SDS_P1;SDS_P2;PMS_P1;PMS_P2;Temp;Humidity;BMP_temperature;BMP_pressure;BME280_temperature;BME280_humidity;BME280_pressure;Samples;Min_cycle;Max_cycle;Signal;HPM_P1;HPM_P2
2022/10/04 00:00:49;;;;;;;0.50;0.50;;;8.60;99.90;;;;;;5074648;28;20836;-80
2022/10/04 00:03:20;;;;;;;1.43;0.83;;;8.60;99.90;;;;;;5074150;28;20941;-80
2022/10/04 00:05:53;;;;;;;0.60;0.60;;;8.50;99.90;;;;;;5074280;28;20932;-80
2022/10/04 00:08:27;;;;;;;1.03;0.57;;;8.50;99.90;;;;;;5074181;28;20433;-80
2022/10/04 00:11:04;;;;;;;0.70;0.70;;;8.40;99.90;;;;;;5074151;28;20426;-80
2022/10/04 00:13:33;;;;;;;1.43;0.90;;;8.40;99.90;;;;;;5074338;28;20436;-80
2022/10/04 00:16:00;;;;;;;0.87;0.70;;;8.40;99.90;;;;;;5074300;28;20502;-80
2022/10/04 00:18:31;;;;;;;0.83;0.83;;;8.40;99.90;;;;;;5074163;28;20493;-80
2022/10/04 00:21:03;;;;;;;1.23;1.07;;;8.40;99.90;;;;;;5074276;28;20434;-80
2022/10/04 00:23:43;;;;;;;1.10;0.70;;;8.40;99.90;;;;;;5074102;28;20426;-80
2022/10/04 00:26:15;;;;;;;0.80;0.50;;;8.40;99.90;;;;;;5074144;28;20792;-80
2022/10/04 00:28:45;;;;;;;0.90;0.90;;;8.40;99.90;;;;;;5073901;28;20484;-80
2022/10/04 00:31:29;;;;;;;0.37;0.37;;;8.40;99.90;;;;;;5073979;28;20827;-80
2022/10/04 00:34:26;;;;;;;1.10;0.60;;;8.30;99.90;;;;;;5073950;28;20491;-80
2022/10/04 00:36:55;;;;;;;1.93;1.03;;;8.30;99.90;;;;;;5073464;28;20445;-80
2022/10/04 00:39:36;;;;;;;1.70;0.70;;;8.30;99.90;;;;;;5073781;28;20477;-80
2022/10/04 00:42:26;;;;;;;0.77;0.77;;;8.30;99.90;;;;;;5073877;28;20444;-80
2022/10/04 00:44:58;;;;;;;0.67;0.67;;;8.40;99.90;;;;;;5073973;28;20477;-80
2022/10/04 00:47:30;;;;;;;0.73;0.73;;;8.40;99.90;;;;;;5073498;28;20933;-77
2022/10/04 00:50:03;;;;;;;0.60;0.60;;;8.40;99.90;;;;;;5073774;28;20428;-77
2022/10/04 00:52:35;;;;;;;1.03;0.60;;;8.40;99.90;;;;;;5074240;28;20433;-77
2022/10/04 00:55:05;;;;;;;0.40;0.40;;;8.40;99.90;;;;;;5073330;28;20461;-77
2022/10/04 00:57:38;;;;;;;1.30;0.70;;;8.40;99.90;;;;;;5073875;28;20441;-77
2022/10/04 01:00:11;;;;;;;1.20;0.50;;;8.40;99.90;;;;;;5073226;28;20836;-77
2022/10/04 01:02:50;;;;;;;1.17;0.67;;;8.40;99.90;;;;;;5073321;28;20914;-77
2022/10/04 01:05:20;;;;;;;0.40;0.40;;;8.40;99.90;;;;;;5073526;28;20465;-77
2022/10/04 01:07:52;;;;;;;0.67;0.67;;;8.40;99.90;;;;;;5073535;28;20434;-77
2022/10/04 01:10:22;;;;;;;0.90;0.50;;;8.40;99.90;;;;;;5073505;28;20430;-77
2022/10/04 01:12:53;;;;;;;0.57;0.57;;;8.40;99.90;;;;;;5073142;28;20957;-77
2022/10/04 01:15:28;;;;;;;0.60;0.60;;;8.40;99.90;;;;;;5073056;28;20831;-77
2022/10/04 01:18:14;;;;;;;0.40;0.40;;;8.40;99.90;;;;;;5073449;28;20430;-77
2022/10/04 01:20:52;;;;;;;0.80;0.40;;;8.30;99.90;;;;;;5073407;28;20434;-77
2022/10/04 01:23:43;;;;;;;0.50;0.40;;;8.30;99.90;;;;;;5073327;28;20441;-77
2022/10/04 01:26:37;;;;;;;1.67;0.70;;;8.20;99.90;;;;;;5073040;28;20438;-77
2022/10/04 01:29:08;;;;;;;1.23;0.73;;;8.20;99.90;;;;;;5072797;28;20876;-77
2022/10/04 01:31:37;;;;;;;0.97;0.50;;;8.20;99.90;;;;;;5073552;28;20425;-77
2022/10/04 01:34:05;;;;;;;0.63;0.63;;;8.10;99.90;;;;;;5073182;28;20484;-77
2022/10/04 01:36:32;;;;;;;0.40;0.40;;;8.10;99.90;;;;;;5073218;28;20473;-77
2022/10/04 01:39:00;;;;;;;0.93;0.50;;;8.10;99.90;;;;;;5072770;28;21004;-77
2022/10/04 01:41:31;;;;;;;0.60;0.60;;;8.00;99.90;;;;;;5072847;28;20956;-77
2022/10/04 01:44:03;;;;;;;1.47;0.93;;;8.00;99.90;;;;;;5073103;28;20477;-77
2022/10/04 01:46:35;;;;;;;0.50;0.40;;;8.00;99.90;;;;;;5072822;28;20470;-77
2022/10/04 01:49:05;;;;;;;2.00;1.60;;;8.00;99.90;;;;;;5073407;28;20437;-77
2022/10/04 01:51:36;;;;;;;0.60;0.60;;;8.00;99.90;;;;;;5072799;28;20430;-77
2022/10/04 01:54:08;;;;;;;0.60;0.40;;;7.90;99.90;;;;;;5072980;28;20488;-77
2022/10/04 01:56:43;;;;;;;0.70;0.40;;;8.00;99.90;;;;;;5073080;28;20429;-77
2022/10/04 01:59:17;;;;;;;0.50;0.50;;;7.90;99.90;;;;;;5072976;28;20484;-76
2022/10/04 02:01:50;;;;;;;0.90;0.90;;;7.90;99.90;;;;;;5073028;28;20479;-77
2022/10/04 02:04:19;;;;;;;0.40;0.40;;;7.90;99.90;;;;;;5072650;28;21007;-77
2022/10/04 02:06:49;;;;;;;1.17;0.80;;;7.90;99.90;;;;;;5074939;28;20506;-77
2022/10/04 02:09:20;;;;;;;2.37;2.20;;;7.90;99.90;;;;;;5076742;28;20445;-77
2022/10/04 02:11:51;;;;;;;0.77;0.50;;;7.90;99.90;;;;;;5076772;28;20440;-77
2022/10/04 02:14:21;;;;;;;1.10;0.73;;;8.00;99.90;;;;;;5076665;28;20469;-77
2022/10/04 02:16:52;;;;;;;0.60;0.60;;;7.90;99.90;;;;;;5076267;28;20452;-77
2022/10/04 02:19:21;;;;;;;0.60;0.50;;;7.90;99.90;;;;;;5076491;28;20471;-77
2022/10/04 02:21:49;;;;;;;0.53;0.53;;;7.90;99.90;;;;;;5076543;28;20448;-77
2022/10/04 02:24:18;;;;;;;2.97;1.00;;;7.90;99.90;;;;;;5076387;28;20492;-77
2022/10/04 02:26:49;;;;;;;0.50;0.50;;;7.90;99.90;;;;;;5076431;28;20441;-75
2022/10/04 02:29:17;;;;;;;1.50;0.70;;;7.90;99.90;;;;;;5076070;28;20496;-75
2022/10/04 02:34:29;;;;;;;2.53;0.70;;;7.90;99.90;;;;;;5076120;28;20444;-75
2022/10/04 02:36:56;;;;;;;1.47;0.97;;;7.90;99.90;;;;;;5077047;28;20476;-75
2022/10/04 02:39:26;;;;;;;2.40;0.60;;;7.80;99.90;;;;;;5076117;28;20485;-75
2022/10/04 02:41:58;;;;;;;0.50;0.50;;;7.80;99.90;;;;;;5076451;28;20448;-75
2022/10/04 02:44:29;;;;;;;3.07;0.80;;;7.80;99.90;;;;;;5076116;28;20469;-75
2022/10/04 02:47:07;;;;;;;0.50;0.50;;;7.80;99.90;;;;;;5076137;28;20431;-75
2022/10/04 02:49:37;;;;;;;1.10;1.00;;;7.80;99.90;;;;;;5076199;28;20483;-75
2022/10/04 02:52:07;;;;;;;1.42;0.90;;;7.80;99.90;;;;;;5076230;28;20496;-75
2022/10/04 02:54:42;;;;;;;0.50;0.50;;;7.90;99.90;;;;;;5075816;28;20242;-75
2022/10/04 02:57:15;;;;;;;0.37;0.30;;;7.90;99.90;;;;;;5076062;28;20786;-75
2022/10/04 02:59:42;;;;;;;2.90;1.10;;;8.00;99.90;;;;;;5075774;28;20465;-76
2022/10/04 03:02:23;;;;;;;0.77;0.60;;;8.00;99.90;;;;;;5075912;28;20444;-75
2022/10/04 03:04:52;;;;;;;1.93;0.80;;;7.90;99.90;;;;;;5075435;28;21015;-75
2022/10/04 03:07:20;;;;;;;0.50;0.50;;;7.90;99.90;;;;;;5075748;28;20450;-75
2022/10/04 03:09:50;;;;;;;1.17;1.17;;;7.90;99.90;;;;;;5075640;28;20449;-75
2022/10/04 03:12:17;;;;;;;1.23;1.07;;;7.90;99.90;;;;;;5075598;28;20442;-75
2022/10/04 03:14:44;;;;;;;1.07;0.70;;;7.90;99.90;;;;;;5075153;28;20473;-75
2022/10/04 03:17:14;;;;;;;0.70;0.60;;;7.90;99.90;;;;;;5075311;28;20453;-75
2022/10/04 03:19:41;;;;;;;2.67;1.23;;;7.90;99.90;;;;;;5075332;28;20495;-75
2022/10/04 03:22:11;;;;;;;0.60;0.43;;;7.90;99.90;;;;;;5075131;28;20784;-75
2022/10/04 03:24:43;;;;;;;0.43;0.40;;;7.90;99.90;;;;;;5075325;28;20552;-75
2022/10/04 03:27:16;;;;;;;0.70;0.47;;;7.90;99.90;;;;;;5075294;28;20426;-75
2022/10/04 03:29:43;;;;;;;1.90;1.00;;;7.90;99.90;;;;;;5074833;28;20856;-75
2022/10/04 03:32:14;;;;;;;1.60;0.50;;;7.90;99.90;;;;;;5075211;28;20450;-75
2022/10/04 03:34:45;;;;;;;4.93;1.13;;;7.90;99.90;;;;;;5074800;28;20472;-75
2022/10/04 03:37:15;;;;;;;1.40;0.50;;;7.90;99.90;;;;;;5076204;28;20449;-75
2022/10/04 03:39:45;;;;;;;0.63;0.63;;;8.00;99.90;;;;;;5075131;28;20848;-75
2022/10/04 03:42:17;;;;;;;0.40;0.40;;;7.90;99.90;;;;;;5074690;28;20816;-75
2022/10/04 03:44:45;;;;;;;0.70;0.60;;;7.90;99.90;;;;;;5074908;28;20473;-75
2022/10/04 03:47:16;;;;;;;2.63;0.80;;;7.90;99.90;;;;;;5074596;28;20957;-75
2022/10/04 03:49:44;;;;;;;0.50;0.50;;;7.90;99.90;;;;;;5074933;28;20429;-75
2022/10/04 03:52:19;;;;;;;1.23;0.90;;;7.90;99.90;;;;;;5074813;28;20449;-75
2022/10/04 03:54:47;;;;;;;0.47;0.40;;;7.90;99.90;;;;;;5074407;28;20468;-75
2022/10/04 03:57:15;;;;;;;2.23;0.80;;;7.90;99.90;;;;;;5074720;28;20473;-75
2022/10/04 03:59:42;;;;;;;1.77;0.60;;;7.90;99.90;;;;;;5075050;28;20485;-75
2022/10/04 04:02:16;;;;;;;1.43;0.70;;;7.90;99.90;;;;;;5074334;28;20499;-75
2022/10/04 04:04:52;;;;;;;1.83;0.70;;;7.90;99.90;;;;;;5074514;28;20828;-75
2022/10/04 04:07:24;;;;;;;0.40;0.30;;;7.90;99.90;;;;;;5074803;28;20429;-75
2022/10/04 04:09:55;;;;;;;0.63;0.63;;;7.90;99.90;;;;;;5074192;28;20909;-75
2022/10/04 04:12:26;;;;;;;7.30;1.13;;;7.90;99.90;;;;;;5074514;28;20429;-76
2022/10/04 04:14:54;;;;;;;1.17;0.70;;;8.00;99.90;;;;;;5074293;28;20530;-75
2022/10/04 04:17:38;;;;;;;0.80;0.77;;;8.00;99.90;;;;;;5074301;28;20469;-75
2022/10/04 04:20:15;;;;;;;0.97;0.83;;;8.00;99.90;;;;;;5073920;28;20535;-75
2022/10/04 04:22:45;;;;;;;2.00;0.87;;;8.00;99.90;;;;;;5074497;28;20430;-75
2022/10/04 04:25:15;;;;;;;1.83;0.60;;;8.00;99.90;;;;;;5074339;28;20465;-75
2022/10/04 04:27:47;;;;;;;2.80;0.70;;;8.00;99.90;;;;;;5074132;28;20436;-75
2022/10/04 04:30:17;;;;;;;1.03;0.90;;;8.00;99.90;;;;;;5073553;28;20438;-75
2022/10/04 04:32:49;;;;;;;0.63;0.50;;;8.10;99.90;;;;;;5074024;28;20438;-75
2022/10/04 04:35:25;;;;;;;0.30;0.30;;;8.00;99.90;;;;;;5073670;28;20969;-74
2022/10/04 04:38:11;;;;;;;0.50;0.50;;;8.00;99.90;;;;;;5074151;28;20452;-74
2022/10/04 04:40:37;;;;;;;0.30;0.30;;;7.90;99.90;;;;;;5073796;28;20469;-74
2022/10/04 04:43:06;;;;;;;0.50;0.50;;;7.90;99.90;;;;;;5073857;28;20448;-74
2022/10/04 04:45:34;;;;;;;0.40;0.40;;;7.90;99.90;;;;;;5073712;28;20466;-74
2022/10/04 04:48:02;;;;;;;0.97;0.97;;;7.90;99.90;;;;;;5073714;28;20457;-74
2022/10/04 04:50:32;;;;;;;2.00;1.00;;;7.90;99.90;;;;;;5073760;28;20461;-74
2022/10/04 04:53:05;;;;;;;1.60;0.60;;;7.80;99.90;;;;;;5073742;28;20453;-74
2022/10/04 04:55:35;;;;;;;0.70;0.70;;;7.80;99.90;;;;;;5073331;28;20973;-74
2022/10/04 04:58:03;;;;;;;2.10;0.50;;;7.80;99.90;;;;;;5073647;28;20441;-74
2022/10/04 05:00:37;;;;;;;0.47;0.47;;;7.90;99.90;;;;;;5073828;28;20485;-74
2022/10/04 05:03:06;;;;;;;2.97;0.40;;;7.90;99.90;;;;;;5073623;28;20440;-74
2022/10/04 05:05:33;;;;;;;1.27;1.07;;;7.90;99.90;;;;;;5073451;28;20461;-74
2022/10/04 05:08:16;;;;;;;1.27;0.90;;;7.90;99.90;;;;;;5073261;28;20442;-75
2022/10/04 05:10:47;;;;;;;1.10;0.47;;;7.90;99.90;;;;;;5073120;28;20948;-75
2022/10/04 05:13:15;;;;;;;0.50;0.40;;;8.00;99.90;;;;;;5073535;28;20432;-75
2022/10/04 05:15:44;;;;;;;3.90;0.60;;;8.00;99.90;;;;;;5073653;28;20453;-75
2022/10/04 05:18:23;;;;;;;0.50;0.50;;;8.00;99.90;;;;;;5073395;28;20446;-75
2022/10/04 05:20:53;;;;;;;1.17;0.83;;;8.00;99.90;;;;;;5073045;28;21012;-74
2022/10/04 05:23:20;;;;;;;1.50;1.30;;;7.90;99.90;;;;;;5073284;28;20453;-74
2022/10/04 05:25:48;;;;;;;1.17;0.70;;;7.80;99.90;;;;;;5073350;28;20476;-74
2022/10/04 05:28:17;;;;;;;1.20;0.73;;;7.80;99.90;;;;;;5073158;28;20484;-75
2022/10/04 05:30:50;;;;;;;0.50;0.50;;;7.80;99.90;;;;;;5073281;28;20499;-74
2022/10/04 05:33:24;;;;;;;1.03;0.73;;;7.70;99.90;;;;;;5072916;28;20937;-74
2022/10/04 05:36:26;;;;;;;0.50;0.50;;;7.70;99.90;;;;;;5073226;28;20436;-74
2022/10/04 05:39:04;;;;;;;0.87;0.50;;;7.60;99.90;;;;;;5062684;28;20547;-74
2022/10/04 05:41:38;;;;;;;0.70;0.70;;;7.60;99.90;;;;;;5074829;28;20512;-74
2022/10/04 05:44:20;;;;;;;2.47;0.60;;;7.60;99.90;;;;;;5077806;28;20461;-74
2022/10/04 05:46:49;;;;;;;0.80;0.50;;;7.60;99.90;;;;;;5076969;28;20966;-74
2022/10/04 05:49:18;;;;;;;1.10;0.87;;;7.60;99.90;;;;;;5077187;28;20441;-74
2022/10/04 05:51:49;;;;;;;2.93;0.93;;;7.60;99.90;;;;;;5076839;28;20944;-74
2022/10/04 05:54:21;;;;;;;0.70;0.67;;;7.60;99.90;;;;;;5077049;28;20465;-74
2022/10/04 05:57:20;;;;;;;1.73;1.07;;;7.60;99.90;;;;;;5077095;28;20440;-74
2022/10/04 06:00:09;;;;;;;2.03;0.70;;;7.70;99.90;;;;;;5076611;28;20466;-74
2022/10/04 06:02:54;;;;;;;0.53;0.53;;;7.70;99.90;;;;;;5076907;28;20441;-74
2022/10/04 06:05:26;;;;;;;1.57;0.70;;;7.80;99.90;;;;;;5076812;28;20477;-74
2022/10/04 06:07:58;;;;;;;0.40;0.40;;;7.80;99.90;;;;;;5076840;28;20491;-74
2022/10/04 06:10:43;;;;;;;0.97;0.60;;;7.90;99.90;;;;;;5076804;28;20433;-74
2022/10/04 06:13:23;;;;;;;0.73;0.53;;;8.00;99.90;;;;;;5076738;28;20444;-74
2022/10/04 06:15:57;;;;;;;1.07;0.43;;;8.10;99.90;;;;;;5076695;28;20447;-75
2022/10/04 06:18:48;;;;;;;0.70;0.70;;;8.10;99.90;;;;;;5076624;28;20438;-75
2022/10/04 06:21:24;;;;;;;2.20;0.50;;;8.10;99.90;;;;;;5048483;28;20485;-74
2022/10/04 06:23:59;;;;;;;0.40;0.40;;;8.10;99.90;;;;;;5076394;28;20473;-74
2022/10/04 06:26:30;;;;;;;0.70;0.57;;;8.10;99.90;;;;;;5076488;28;20432;-75
2022/10/04 06:29:00;;;;;;;2.50;1.00;;;8.20;99.90;;;;;;5076027;28;20492;-74
2022/10/04 06:32:03;;;;;;;0.67;0.67;;;8.20;99.90;;;;;;5076618;28;20441;-74
2022/10/04 06:35:01;;;;;;;0.47;0.47;;;8.30;99.90;;;;;;5073631;28;20476;-74
2022/10/04 06:38:05;;;;;;;1.47;0.90;;;8.50;99.90;;;;;;5077114;28;20434;-74
2022/10/04 06:41:15;;;;;;;1.17;0.93;;;8.50;99.90;;;;;;5040060;28;20484;-74
2022/10/04 06:43:58;;;;;;;2.00;0.60;;;8.60;99.90;;;;;;5069375;28;20473;-75
2022/10/04 06:46:34;;;;;;;1.27;1.17;;;8.70;99.90;;;;;;5075787;28;20964;-74
2022/10/04 06:49:27;;;;;;;0.90;0.70;;;8.80;99.90;;;;;;5075783;28;20437;-74
2022/10/04 06:52:20;;;;;;;0.40;0.30;;;8.90;99.90;;;;;;5075456;28;20417;-75
2022/10/04 06:55:02;;;;;;;1.90;0.97;;;9.00;99.90;;;;;;5075607;28;20227;-75
2022/10/04 06:57:48;;;;;;;0.90;0.50;;;9.00;99.90;;;;;;5075991;28;20438;-74
2022/10/04 07:00:18;;;;;;;0.53;0.47;;;9.10;99.90;;;;;;5075781;28;20469;-74
2022/10/04 07:02:50;;;;;;;1.37;1.10;;;9.20;99.90;;;;;;5075514;28;20438;-74
2022/10/04 07:05:29;;;;;;;2.30;0.73;;;9.20;99.90;;;;;;5075732;28;20469;-75
2022/10/04 07:08:06;;;;;;;0.50;0.50;;;9.20;99.90;;;;;;5075715;28;20468;-75
2022/10/04 07:10:37;;;;;;;5.13;1.17;;;9.30;99.90;;;;;;5075365;28;20426;-75
2022/10/04 07:13:19;;;;;;;0.50;0.50;;;9.40;99.90;;;;;;5075338;28;20916;-75
2022/10/04 07:15:54;;;;;;;0.90;0.63;;;9.30;99.90;;;;;;5075623;28;20430;-76
2022/10/04 07:18:25;;;;;;;1.27;0.70;;;9.40;99.90;;;;;;5075500;28;20904;-76
2022/10/04 07:21:00;;;;;;;1.10;0.57;;;9.40;99.90;;;;;;5075369;28;21022;-76
2022/10/04 07:23:34;;;;;;;0.57;0.57;;;9.30;99.90;;;;;;5075402;28;20437;-76
2022/10/04 07:26:06;;;;;;;1.07;0.87;;;9.30;99.90;;;;;;5075422;28;20830;-76
2022/10/04 07:31:27;;;;;;;0.60;0.47;;;9.40;99.90;;;;;;5075188;28;20452;-76
2022/10/04 07:33:58;;;;;;;0.70;0.70;;;9.50;99.90;;;;;;5074900;28;21020;-76
2022/10/04 07:36:30;;;;;;;0.90;0.60;;;9.60;99.90;;;;;;5075212;28;20437;-76
2022/10/04 07:39:04;;;;;;;0.70;0.50;;;9.60;99.90;;;;;;5074879;28;20900;-76
2022/10/04 07:41:35;;;;;;;0.60;0.50;;;9.70;99.90;;;;;;5075039;28;20559;-76
2022/10/04 07:44:07;;;;;;;2.20;0.90;;;9.70;99.90;;;;;;5074981;28;20481;-76
2022/10/04 07:46:58;;;;;;;0.87;0.50;;;9.70;99.90;;;;;;5075044;28;20429;-76
2022/10/04 07:49:26;;;;;;;0.40;0.40;;;9.80;99.90;;;;;;5071817;28;20460;-77
2022/10/04 07:52:12;;;;;;;0.80;0.60;;;9.80;99.90;;;;;;5074835;28;20475;-76
2022/10/04 07:54:47;;;;;;;2.00;0.40;;;9.90;99.90;;;;;;5074785;28;20457;-76
2022/10/04 07:57:22;;;;;;;0.40;0.40;;;10.00;99.90;;;;;;5074788;28;20425;-76
2022/10/04 08:00:01;;;;;;;0.60;0.40;;;10.00;99.90;;;;;;5074722;28;20440;-76
2022/10/04 08:02:39;;;;;;;0.80;0.80;;;10.10;99.90;;;;;;5074657;28;20426;-76
2022/10/04 08:05:19;;;;;;;0.87;0.87;;;10.20;99.90;;;;;;5073795;28;20464;-76
2022/10/04 08:08:15;;;;;;;1.07;0.60;;;10.30;99.90;;;;;;5074560;28;20430;-76
2022/10/04 08:10:55;;;;;;;1.13;0.47;;;10.50;99.90;;;;;;5074508;28;20456;-76
2022/10/04 08:13:27;;;;;;;1.23;0.80;;;10.60;99.90;;;;;;5074116;28;20425;-76
2022/10/04 08:16:01;;;;;;;0.50;0.50;;;10.70;99.90;;;;;;5074224;28;21016;-76
2022/10/04 08:18:42;;;;;;;1.50;0.50;;;10.70;99.90;;;;;;5074357;28;20433;-76
2022/10/04 08:21:16;;;;;;;0.80;0.73;;;10.90;99.90;;;;;;5074261;28;20469;-76
2022/10/04 08:24:03;;;;;;;2.00;1.13;;;10.90;99.90;;;;;;5074188;28;20477;-76
2022/10/04 08:26:43;;;;;;;0.80;0.70;;;11.00;99.90;;;;;;5074158;28;20432;-76
2022/10/04 08:29:41;;;;;;;1.70;0.83;;;11.10;99.90;;;;;;5073956;28;20473;-76
2022/10/04 08:32:29;;;;;;;0.40;0.40;;;11.30;99.90;;;;;;5074078;28;20495;-76
2022/10/04 08:35:08;;;;;;;1.40;0.57;;;11.30;99.90;;;;;;5073988;28;20476;-76
2022/10/04 08:37:45;;;;;;;1.07;0.80;;;11.40;99.90;;;;;;5073887;28;20434;-76
2022/10/04 08:40:49;;;;;;;1.03;0.60;;;11.40;99.90;;;;;;5073918;28;20442;-76
2022/10/04 08:43:48;;;;;;;1.50;0.50;;;11.40;99.90;;;;;;5055271;28;20456;-76
2022/10/04 08:46:50;;;;;;;0.60;0.60;;;11.60;99.90;;;;;;5073548;28;20470;-76
2022/10/04 08:50:05;;;;;;;0.60;0.50;;;11.80;99.90;;;;;;5073490;28;20805;-76
2022/10/04 08:52:57;;;;;;;0.50;0.50;;;12.10;99.90;;;;;;5073746;28;20436;-76
2022/10/04 08:55:52;;;;;;;2.33;0.73;;;12.20;99.90;;;;;;5073318;28;20868;-76
2022/10/04 08:59:15;;;;;;;0.83;0.80;;;12.50;99.90;;;;;;5071854;28;20460;-76
2022/10/04 09:02:33;;;;;;;0.70;0.67;;;12.60;99.90;;;;;;5037265;28;21060;-76
2022/10/04 09:05:28;;;;;;;2.30;1.03;;;13.00;99.90;;;;;;5011552;28;20467;-77
2022/10/04 09:08:28;;;;;;;0.77;0.50;;;13.30;99.90;;;;;;5011158;28;20467;-77
2022/10/04 09:11:30;;;;;;;2.50;1.00;;;13.60;99.90;;;;;;5073084;28;20441;-77
2022/10/04 09:14:30;;;;;;;0.67;0.60;;;14.10;99.90;;;;;;5068237;28;20840;-77
2022/10/04 09:17:07;;;;;;;1.40;0.60;;;14.60;99.90;;;;;;5073509;28;20440;-77
2022/10/04 09:19:47;;;;;;;0.70;0.70;;;14.90;99.90;;;;;;5074483;28;20436;-77
2022/10/04 09:22:19;;;;;;;1.87;0.77;;;15.40;99.90;;;;;;5073618;28;20457;-77
2022/10/04 09:25:07;;;;;;;0.60;0.60;;;15.60;99.90;;;;;;5073297;28;20457;-77
2022/10/04 09:27:58;;;;;;;1.83;0.97;;;15.90;99.90;;;;;;5074103;28;20776;-77
2022/10/04 09:30:39;;;;;;;1.30;0.50;;;15.80;99.90;;;;;;5073334;28;20410;-77
2022/10/04 09:33:32;;;;;;;1.97;0.70;;;15.80;99.90;;;;;;5073003;28;20897;-77
2022/10/04 09:36:29;;;;;;;1.67;0.80;;;15.70;99.90;;;;;;5062737;28;20453;-77
2022/10/04 09:39:22;;;;;;;1.40;0.70;;;15.50;99.90;;;;;;5073273;28;20436;-77
2022/10/04 09:42:25;;;;;;;2.60;1.90;;;15.50;99.90;;;;;;5073177;28;20472;-78
2022/10/04 09:45:47;;;;;;;2.03;0.80;;;15.40;99.90;;;;;;5053962;28;20465;-77
2022/10/04 09:48:24;;;;;;;1.07;0.80;;;15.30;99.90;;;;;;5073961;28;20441;-77
2022/10/04 09:51:30;;;;;;;0.97;0.50;;;15.30;99.90;;;;;;5073898;28;20446;-76
2022/10/04 09:54:15;;;;;;;0.80;0.60;;;15.30;99.90;;;;;;5072994;28;21007;-76
2022/10/04 09:57:01;;;;;;;0.90;0.70;;;15.30;99.90;;;;;;5073108;28;20440;-77
2022/10/04 09:59:54;;;;;;;2.40;0.60;;;15.50;99.90;;;;;;5073355;28;20437;-81
2022/10/04 10:05:45;;;;;;;1.53;0.63;;;15.50;99.90;;;;;;5091925;28;20617;-81
2022/10/04 10:08:22;;;;;;;1.20;1.10;;;15.90;99.90;;;;;;5090020;28;20819;-81
2022/10/04 10:14:10;;;;;;;0.60;0.50;;;16.20;99.90;;;;;;5090789;28;20830;-81
2022/10/04 10:16:53;;;;;;;1.30;0.70;;;16.40;99.90;;;;;;5090780;28;20429;-81
2022/10/04 10:19:42;;;;;;;0.60;0.60;;;16.60;99.90;;;;;;5090450;28;20440;-82
2022/10/04 10:22:29;;;;;;;0.70;0.60;;;16.80;99.90;;;;;;5090726;28;20441;-83
2022/10/04 10:25:22;;;;;;;1.03;0.70;;;17.30;99.90;;;;;;5090203;28;21051;-82
2022/10/04 10:28:04;;;;;;;1.23;1.00;;;17.70;99.90;;;;;;5090614;28;20437;-84
2022/10/04 10:30:41;;;;;;;1.37;0.50;;;18.20;99.90;;;;;;5090217;28;20923;-81
2022/10/04 10:33:37;;;;;;;0.80;0.60;;;18.80;99.90;;;;;;5090320;28;20433;-85
2022/10/04 10:36:26;;;;;;;0.60;0.60;;;19.80;99.90;;;;;;5090445;28;20774;-82
2022/10/04 10:39:29;;;;;;;0.90;0.50;;;21.10;99.90;;;;;;5090384;28;20436;-84
2022/10/04 10:42:22;;;;;;;0.60;0.60;;;22.40;99.90;;;;;;5090012;28;20483;-83
2022/10/04 10:45:08;;;;;;;0.60;0.60;;;23.30;99.90;;;;;;5089821;28;20996;-83
2022/10/04 10:47:45;;;;;;;1.07;0.97;;;23.70;99.90;;;;;;5090262;28;20437;-83
2022/10/04 10:51:00;;;;;;;0.90;0.80;;;23.60;99.90;;;;;;5089886;28;20568;-82
2022/10/04 10:53:47;;;;;;;2.07;0.90;;;22.90;99.90;;;;;;5054786;28;20955;-82
2022/10/04 10:56:41;;;;;;;0.70;0.70;;;22.20;99.90;;;;;;5056550;28;20788;-82
2022/10/04 10:59:49;;;;;;;2.67;1.00;;;21.20;99.90;;;;;;5090383;28;20409;-81
2022/10/04 11:02:51;;;;;;;1.07;0.77;;;20.10;99.90;;;;;;5090000;28;20437;-82
2022/10/04 11:05:58;;;;;;;0.93;0.80;;;19.40;99.90;;;;;;5089726;28;20489;-81
2022/10/04 11:08:50;;;;;;;1.00;0.90;;;18.80;99.90;;;;;;5072434;28;20494;-81
2022/10/04 11:11:34;;;;;;;2.07;1.00;;;18.50;99.90;;;;;;5090602;28;20439;-83
2022/10/04 11:14:27;;;;;;;0.57;0.57;;;18.10;99.90;;;;;;5089731;28;20461;-80
2022/10/04 11:17:26;;;;;;;0.70;0.63;;;18.00;99.90;;;;;;5075821;28;20465;-80
2022/10/04 11:20:23;;;;;;;3.20;1.23;;;17.90;99.90;;;;;;5071950;28;20445;-80
2022/10/04 11:23:33;;;;;;;0.73;0.50;;;17.80;99.90;;;;;;5076055;28;20444;-81
2022/10/04 11:26:45;;;;;;;0.73;0.70;;;17.70;99.90;;;;;;5076012;28;20441;-80
2022/10/04 11:29:26;;;;;;;0.80;0.60;;;17.60;99.90;;;;;;5075646;28;20445;-81
2022/10/04 11:32:44;;;;;;;0.43;0.43;;;17.50;99.90;;;;;;5075936;28;20429;-81
2022/10/04 11:35:40;;;;;;;0.70;0.70;;;17.40;99.90;;;;;;5075743;28;20461;-80
2022/10/04 11:38:15;;;;;;;0.70;0.50;;;17.40;99.90;;;;;;5068820;28;20464;-80
2022/10/04 11:41:07;;;;;;;0.70;0.50;;;17.40;99.90;;;;;;5075722;28;20433;-80
2022/10/04 11:44:15;;;;;;;0.53;0.40;;;17.30;99.90;;;;;;5075270;28;20999;-81
2022/10/04 11:46:49;;;;;;;0.63;0.63;;;17.30;99.90;;;;;;5067582;28;20828;-80
2022/10/04 11:49:45;;;;;;;0.43;0.40;;;17.40;99.90;;;;;;5075648;28;20425;-80
2022/10/04 11:52:43;;;;;;;0.53;0.53;;;17.30;99.90;;;;;;5075569;28;20429;-76
2022/10/04 11:56:03;;;;;;;0.80;0.80;;;17.20;99.90;;;;;;5075421;28;20461;-79
2022/10/04 11:58:43;;;;;;;1.60;0.80;;;17.20;99.90;;;;;;5075151;28;20426;-76
2022/10/04 12:01:46;;;;;;;0.63;0.63;;;17.30;99.90;;;;;;5075357;28;20433;-81
2022/10/04 12:04:40;;;;;;;0.60;0.47;;;17.30;99.90;;;;;;5023388;28;20511;-80
2022/10/04 12:07:33;;;;;;;1.10;0.60;;;17.30;99.90;;;;;;5069282;28;20941;-81
2022/10/04 12:10:13;;;;;;;1.27;0.57;;;17.20;99.90;;;;;;5075162;28;20433;-81
2022/10/04 12:12:57;;;;;;;0.53;0.53;;;17.20;99.90;;;;;;5074809;28;20920;-81
2022/10/04 12:15:44;;;;;;;0.70;0.70;;;17.10;99.90;;;;;;5074991;28;20461;-81
2022/10/04 12:18:46;;;;;;;0.53;0.53;;;17.00;99.90;;;;;;5074746;28;20436;-81
2022/10/04 12:21:46;;;;;;;0.63;0.43;;;17.00;99.90;;;;;;5074948;28;20447;-81
2022/10/04 12:24:47;;;;;;;1.23;0.50;;;16.90;99.90;;;;;;5074710;28;20516;-81
2022/10/04 12:27:44;;;;;;;0.50;0.50;;;17.00;99.90;;;;;;5073848;28;20452;-80
2022/10/04 12:30:23;;;;;;;0.80;0.60;;;17.00;99.90;;;;;;5074489;28;20898;-81
2022/10/04 12:33:02;;;;;;;1.60;0.80;;;17.00;99.90;;;;;;5074733;28;20433;-81
2022/10/04 12:35:36;;;;;;;0.50;0.43;;;17.00;99.90;;;;;;5074580;28;20469;-81
2022/10/04 12:38:33;;;;;;;0.70;0.67;;;16.90;99.90;;;;;;5074656;28;20784;-81
2022/10/04 12:41:11;;;;;;;0.80;0.50;;;16.90;99.90;;;;;;5069301;28;20453;-82
2022/10/04 12:43:55;;;;;;;1.23;0.50;;;16.80;99.90;;;;;;5074268;28;20964;-86
2022/10/04 12:46:32;;;;;;;0.60;0.40;;;16.80;99.90;;;;;;5074586;28;20436;-87
2022/10/04 12:49:18;;;;;;;0.60;0.60;;;16.80;99.90;;;;;;5074761;28;20892;-87
2022/10/04 12:51:56;;;;;;;0.70;0.60;;;16.70;99.90;;;;;;5074662;28;20458;-87
2022/10/04 12:54:33;;;;;;;0.77;0.77;;;16.70;99.90;;;;;;5074528;28;20462;-87
2022/10/04 12:57:17;;;;;;;0.60;0.40;;;16.70;99.90;;;;;;5074286;28;20487;-87
2022/10/04 12:59:55;;;;;;;1.00;0.70;;;16.70;99.90;;;;;;5074411;28;20448;-86
2022/10/04 13:02:44;;;;;;;1.73;0.77;;;16.60;99.90;;;;;;5074134;28;20443;-88
2022/10/04 13:05:19;;;;;;;0.70;0.70;;;16.70;99.90;;;;;;5074544;28;20538;-87
2022/10/04 13:08:13;;;;;;;0.87;0.50;;;16.70;99.90;;;;;;5074605;28;20911;-87
2022/10/04 13:10:55;;;;;;;0.57;0.40;;;16.80;99.90;;;;;;5074150;28;20441;-87
2022/10/04 13:13:46;;;;;;;0.60;0.43;;;16.80;99.90;;;;;;5074328;28;20807;-88
2022/10/04 13:16:20;;;;;;;1.37;0.50;;;16.80;99.90;;;;;;5074376;28;20434;-87
2022/10/04 13:18:56;;;;;;;0.60;0.60;;;16.90;99.90;;;;;;5073780;28;20434;-86
2022/10/04 13:21:47;;;;;;;0.70;0.50;;;16.80;99.90;;;;;;5074161;28;20417;-87
2022/10/04 13:24:24;;;;;;;0.40;0.40;;;16.70;99.90;;;;;;5073587;28;20992;-86
2022/10/04 13:26:58;;;;;;;0.50;0.50;;;16.70;99.90;;;;;;5073716;28;20426;-87
2022/10/04 13:29:32;;;;;;;0.80;0.50;;;16.60;99.90;;;;;;5073714;28;20425;-86
2022/10/04 13:32:03;;;;;;;0.50;0.50;;;16.60;99.90;;;;;;5073993;28;20437;-86
2022/10/04 13:34:39;;;;;;;0.73;0.60;;;16.50;99.90;;;;;;5073863;28;20462;-86
2022/10/04 13:37:30;;;;;;;1.00;0.50;;;16.40;99.90;;;;;;5074152;28;20437;-87
2022/10/04 13:40:23;;;;;;;0.90;0.60;;;16.30;99.90;;;;;;5073394;28;20434;-87
2022/10/04 13:43:32;;;;;;;1.00;0.50;;;16.30;99.90;;;;;;5065318;28;20464;-86
2022/10/04 13:46:18;;;;;;;0.40;0.40;;;16.30;99.90;;;;;;5038893;28;20938;-86
2022/10/04 13:48:55;;;;;;;0.40;0.33;;;16.30;99.90;;;;;;5073718;28;20448;-86
2022/10/04 13:51:42;;;;;;;0.70;0.50;;;16.20;99.90;;;;;;5073656;28;20433;-85
2022/10/04 13:57:24;;;;;;;0.40;0.30;;;16.20;99.90;;;;;;5073607;28;20401;-87
2022/10/04 13:59:59;;;;;;;0.40;0.40;;;16.30;99.90;;;;;;5073665;28;20422;-76
2022/10/04 14:03:00;;;;;;;0.50;0.50;;;16.30;99.90;;;;;;5072982;28;20430;-76
2022/10/04 14:05:51;;;;;;;0.60;0.57;;;16.30;99.90;;;;;;5072899;28;21021;-78
2022/10/04 14:09:00;;;;;;;0.40;0.37;;;16.30;99.90;;;;;;5073264;28;20433;-79
2022/10/04 14:11:57;;;;;;;0.40;0.37;;;16.30;99.90;;;;;;5073280;28;20433;-79
2022/10/04 14:15:11;;;;;;;0.60;0.60;;;16.30;99.90;;;;;;5072850;28;20877;-82
2022/10/04 14:18:06;;;;;;;0.90;0.50;;;16.30;99.90;;;;;;5072852;28;20805;-79